createdAt,value
2019-02-07T00:02:27.059Z,98273.11
2019-02-07T00:04:53.973Z,98274.81
2019-02-07T00:07:20.888Z,98272.03
2019-02-07T00:09:47.828Z,98263.36
2019-02-07T00:12:14.775Z,98262.23
2019-02-07T00:14:42.290Z,98259.98
2019-02-07T00:17:08.971Z,98257.55
2019-02-07T00:19:35.889Z,98254.55
2019-02-07T00:22:02.825Z,98253.52
2019-02-07T00:24:30.089Z,98247.13
2019-02-07T00:26:56.999Z,98250.38
2019-02-07T00:29:23.955Z,98242.50
2019-02-07T00:31:50.624Z,98238.67
2019-02-07T00:34:17.263Z,98242.61
2019-02-07T00:36:44.649Z,98237.43
2019-02-07T00:39:11.342Z,98232.72
2019-02-07T00:41:38.244Z,98229.83
2019-02-07T00:44:05.324Z,98232.16
2019-02-07T00:46:32.247Z,98229.17
2019-02-07T00:48:59.158Z,98227.55
2019-02-07T00:51:25.908Z,98230.34
2019-02-07T00:53:52.583Z,98230.91
2019-02-07T00:56:19.341Z,98224.66
2019-02-07T00:58:46.524Z,98223.05
2019-02-07T01:01:13.389Z,98229.09
2019-02-07T01:03:40.941Z,98224.91
2019-02-07T01:06:07.710Z,98222.28
2019-02-07T01:08:34.421Z,98220.63
2019-02-07T01:11:01.064Z,98216.80
2019-02-07T01:13:28.057Z,98205.34
2019-02-07T01:15:57.660Z,98210.46
2019-02-07T01:18:25.179Z,98204.08
2019-02-07T01:20:52.135Z,98207.85
2019-02-07T01:23:18.787Z,98202.80
2019-02-07T01:25:45.555Z,98212.81
2019-02-07T01:28:12.183Z,98200.26
2019-02-07T01:30:38.838Z,98199.88
2019-02-07T01:33:05.437Z,98200.94
2019-02-07T01:35:32.454Z,98192.56
2019-02-07T01:37:59.373Z,98199.29
2019-02-07T01:40:26.278Z,98189.97
2019-02-07T01:42:55.699Z,98184.47
2019-02-07T01:45:21.708Z,98183.75
2019-02-07T01:47:48.636Z,98186.76
2019-02-07T01:50:15.279Z,98178.75
2019-02-07T01:52:43.123Z,98180.60
2019-02-07T01:55:09.984Z,98177.76
2019-02-07T01:57:36.906Z,98166.84
2019-02-07T02:00:03.641Z,98165.16
2019-02-07T02:02:30.266Z,98150.88
2019-02-07T02:04:57.171Z,98154.69
2019-02-07T02:07:23.800Z,98149.45
2019-02-07T02:09:50.547Z,98144.52
2019-02-07T02:12:17.832Z,98140.89
2019-02-07T02:14:44.698Z,98137.45
2019-02-07T02:17:11.512Z,98133.63
2019-02-07T02:19:38.251Z,98125.66
2019-02-07T02:22:05.078Z,98129.45
2019-02-07T02:24:31.756Z,98120.39
2019-02-07T02:26:58.414Z,98118.58
2019-02-07T02:29:25.546Z,98117.03
2019-02-07T02:31:52.596Z,98124.89
2019-02-07T02:34:19.680Z,98119.88
2019-02-07T02:36:46.952Z,98120.51
2019-02-07T02:39:15.278Z,98116.02
2019-02-07T02:44:15.384Z,98110.11
2019-02-07T02:46:42.156Z,98108.23
2019-02-07T02:49:09.233Z,98113.26
2019-02-07T02:51:36.073Z,98108.63
2019-02-07T02:54:02.982Z,98103.23
2019-02-07T02:56:30.504Z,98098.84
2019-02-07T02:58:57.166Z,98088.70
2019-02-07T03:01:24.000Z,98087.89
2019-02-07T03:03:51.099Z,98084.47
2019-02-07T03:06:18.558Z,98087.94
2019-02-07T03:08:45.591Z,98088.55
2019-02-07T03:11:12.315Z,98085.34
2019-02-07T03:13:39.370Z,98078.48
2019-02-07T03:16:06.364Z,98075.30
2019-02-07T03:18:33.554Z,98066.05
2019-02-07T03:21:00.521Z,98066.31
2019-02-07T03:23:27.499Z,98059.09
2019-02-07T03:25:54.573Z,98060.59
2019-02-07T03:28:22.897Z,98061.38
2019-02-07T03:30:49.689Z,98061.61
2019-02-07T03:33:16.562Z,98058.88
2019-02-07T03:35:43.644Z,98058.27
2019-02-07T03:38:10.584Z,98050.41
2019-02-07T03:40:37.317Z,98055.93
2019-02-07T03:43:04.705Z,98058.83
2019-02-07T03:45:32.048Z,98054.42
2019-02-07T03:47:58.735Z,98044.35
2019-02-07T03:50:25.749Z,98050.97
2019-02-07T03:52:52.793Z,98047.44
2019-02-07T03:55:19.765Z,98043.38
2019-02-07T03:57:46.487Z,98038.33
2019-02-07T04:00:13.112Z,98033.17
2019-02-07T04:02:40.680Z,98034.23
2019-02-07T04:05:07.952Z,98031.81
2019-02-07T04:07:34.952Z,98030.08
2019-02-07T04:10:01.899Z,98031.29
2019-02-07T04:12:28.555Z,98028.73
2019-02-07T04:14:55.661Z,98022.81
2019-02-07T04:17:22.301Z,98024.20
2019-02-07T04:19:49.163Z,98023.14
2019-02-07T04:22:16.510Z,98017.22
2019-02-07T04:24:43.237Z,98022.07
2019-02-07T04:27:10.157Z,98018.55
2019-02-07T04:29:37.094Z,98015.27
2019-02-07T04:32:03.710Z,98014.30
2019-02-07T04:34:30.365Z,98008.75
2019-02-07T04:36:57.163Z,98010.14
2019-02-07T04:39:23.788Z,98012.53
2019-02-07T04:41:50.530Z,98008.71
2019-02-07T04:44:17.285Z,98006.98
2019-02-07T04:46:44.198Z,98006.98
2019-02-07T04:49:10.900Z,97996.72
2019-02-07T04:51:37.575Z,97995.98
2019-02-07T04:54:04.492Z,97996.16
2019-02-07T04:56:31.558Z,97994.22
2019-02-07T04:58:58.501Z,97993.05
2019-02-07T05:01:25.487Z,97989.21
2019-02-07T05:03:52.369Z,97989.42
2019-02-07T05:06:19.000Z,97986.19
2019-02-07T05:08:47.002Z,97985.55
2019-02-07T05:11:13.650Z,97980.50
2019-02-07T05:13:40.667Z,97980.80
2019-02-07T05:16:07.929Z,97971.28
2019-02-07T05:18:34.895Z,97978.44
2019-02-07T05:21:01.779Z,97972.84
2019-02-07T05:23:28.625Z,97975.59
2019-02-07T05:25:55.351Z,97969.48
2019-02-07T05:28:21.999Z,97970.98
2019-02-07T05:30:48.891Z,97971.52
2019-02-07T05:33:17.295Z,97971.13
2019-02-07T05:35:43.936Z,97972.47
2019-02-07T05:38:10.828Z,97972.28
2019-02-07T05:40:37.503Z,97973.87
2019-02-07T05:43:04.127Z,97973.95
2019-02-07T05:45:31.048Z,97967.83
2019-02-07T05:47:57.672Z,97972.11
2019-02-07T05:50:24.433Z,97969.50
2019-02-07T05:52:52.657Z,97963.95
2019-02-07T05:55:20.256Z,97977.80
2019-02-07T05:57:46.914Z,97969.80
2019-02-07T06:00:13.895Z,97969.17
2019-02-07T06:02:40.538Z,97966.53
2019-02-07T06:05:07.141Z,97973.14
2019-02-07T06:07:34.062Z,97971.55
2019-02-07T06:10:01.227Z,97977.30
2019-02-07T06:12:28.247Z,97974.28
2019-02-07T06:14:54.955Z,97977.12
2019-02-07T06:17:21.777Z,97973.14
2019-02-07T06:19:48.520Z,97971.93
2019-02-07T06:22:15.430Z,97976.80
2019-02-07T06:24:42.147Z,97967.11
2019-02-07T06:27:08.751Z,97972.72
2019-02-07T06:29:35.646Z,97971.58
2019-02-07T06:32:02.925Z,97969.55
2019-02-07T06:34:29.595Z,97966.48
2019-02-07T06:36:56.473Z,97969.73
2019-02-07T06:39:23.111Z,97967.48
2019-02-07T06:41:50.987Z,97969.67
2019-02-07T06:44:17.752Z,97968.38
2019-02-07T06:46:44.854Z,97969.53
2019-02-07T06:49:11.785Z,97969.58
2019-02-07T06:51:38.770Z,97969.73
2019-02-07T06:54:05.756Z,97967.50
2019-02-07T06:56:32.720Z,97967.68
2019-02-07T06:58:59.344Z,97966.50
2019-02-07T07:01:26.306Z,97974.59
2019-02-07T07:03:52.930Z,97961.63
2019-02-07T07:06:28.084Z,97961.26
2019-02-07T07:08:57.835Z,97958.91
2019-02-07T07:11:24.976Z,97959.02
2019-02-07T07:13:51.894Z,97958.56
2019-02-07T07:16:18.602Z,97962.42
2019-02-07T07:18:45.412Z,97961.22
2019-02-07T07:21:11.993Z,97955.30
2019-02-07T07:23:38.682Z,97960.66
2019-02-07T07:26:05.289Z,97958.94
2019-02-07T07:28:32.079Z,97959.78
2019-02-07T07:30:59.043Z,97961.45
2019-02-07T07:33:26.095Z,97961.30
2019-02-07T07:35:53.105Z,97956.55
2019-02-07T07:38:21.692Z,97955.55
2019-02-07T07:40:48.356Z,97947.38
2019-02-07T07:43:15.228Z,97944.41
2019-02-07T07:45:42.154Z,97936.73
2019-02-07T07:48:09.413Z,97944.27
2019-02-07T07:50:36.459Z,97939.42
2019-02-07T07:53:03.429Z,97941.44
2019-02-07T07:55:30.483Z,97934.50
2019-02-07T07:57:57.430Z,97932.99
2019-02-07T08:00:24.107Z,97932.39
2019-02-07T08:02:51.918Z,97927.69
2019-02-07T08:05:18.535Z,97921.20
2019-02-07T08:07:45.260Z,97924.59
2019-02-07T08:10:12.069Z,97919.30
2019-02-07T08:12:38.837Z,97915.29
2019-02-07T08:15:15.288Z,97912.16
2019-02-07T08:17:47.409Z,97911.21
2019-02-07T08:20:10.533Z,97913.95
2019-02-07T08:22:37.178Z,97916.03
2019-02-07T08:25:03.912Z,97901.77
2019-02-07T08:27:33.859Z,97904.52
2019-02-07T08:30:00.861Z,97906.95
2019-02-07T08:32:29.106Z,97906.83
2019-02-07T08:34:56.958Z,97902.68
2019-02-07T08:37:25.037Z,97902.05
2019-02-07T08:39:52.538Z,97902.93
2019-02-07T08:42:22.350Z,97901.66
2019-02-07T08:45:08.595Z,97903.34
2019-02-07T08:47:35.858Z,97903.08
2019-02-07T08:50:06.590Z,97895.88
2019-02-07T08:52:34.118Z,97889.27
2019-02-07T08:55:04.160Z,97891.21
2019-02-07T08:57:33.618Z,97881.13
2019-02-07T09:00:03.114Z,97886.12
2019-02-07T09:02:29.765Z,97885.98
2019-02-07T09:04:56.922Z,97887.11
2019-02-07T09:07:23.580Z,97882.28
2019-02-07T09:09:50.554Z,97882.11
2019-02-07T09:12:17.569Z,97882.67
2019-02-07T09:14:44.616Z,97874.95
2019-02-07T09:17:14.361Z,97875.31
2019-02-07T09:19:40.383Z,97867.61
2019-02-07T09:22:07.178Z,97870.72
2019-02-07T09:24:33.822Z,97867.73
2019-02-07T09:27:00.667Z,97872.73
2019-02-07T09:29:27.361Z,97866.27
2019-02-07T09:31:54.279Z,97865.09
2019-02-07T09:34:20.919Z,97864.66
2019-02-07T09:36:47.765Z,97864.55
2019-02-07T09:39:14.643Z,97855.54
2019-02-07T09:41:41.346Z,97862.48
2019-02-07T09:44:08.127Z,97857.31
2019-02-07T09:46:36.223Z,97854.83
2019-02-07T09:49:13.588Z,97856.54
2019-02-07T09:51:36.853Z,97851.68
2019-02-07T09:54:05.024Z,97857.04
2019-02-07T09:56:33.035Z,97860.73
2019-02-07T09:59:03.228Z,97854.34
2019-02-07T10:01:32.385Z,97854.79
2019-02-07T10:04:01.961Z,97849.31
2019-02-07T10:06:31.757Z,97849.63
2019-02-07T10:08:59.723Z,97844.39
2019-02-07T10:11:30.960Z,97846.35
2019-02-07T10:14:01.605Z,97842.83
2019-02-07T10:16:28.478Z,97837.74
2019-02-07T10:18:59.732Z,97843.37
2019-02-07T10:21:26.613Z,97833.85
2019-02-07T10:23:55.736Z,97833.45
2019-02-07T10:26:25.457Z,97828.72
2019-02-07T10:28:56.579Z,97825.48
2019-02-07T10:31:26.246Z,97815.66
2019-02-07T10:33:54.857Z,97817.12
2019-02-07T10:36:35.628Z,97815.66
2019-02-07T10:38:51.086Z,97808.13
2019-02-07T10:41:17.712Z,97803.07
2019-02-07T10:43:44.352Z,97803.38
2019-02-07T10:46:11.028Z,97797.80
2019-02-07T10:48:44.520Z,97797.91
2019-02-07T10:51:12.079Z,97795.66
2019-02-07T10:53:40.923Z,97788.09
2019-02-07T10:56:10.750Z,97784.41
2019-02-07T10:58:41.080Z,97781.97
2019-02-07T11:01:08.090Z,97782.20
2019-02-07T11:03:37.766Z,97776.17
2019-02-07T11:06:06.831Z,97777.01
2019-02-07T11:08:38.328Z,97774.57
2019-02-07T11:11:07.322Z,97772.80
2019-02-07T11:13:37.553Z,97767.83
2019-02-07T11:16:08.449Z,97766.83
2019-02-07T11:18:38.074Z,97756.14
2019-02-07T11:21:09.466Z,97757.72
2019-02-07T11:23:38.934Z,97755.59
2019-02-07T11:26:06.841Z,97751.01
2019-02-07T11:28:38.296Z,97743.80
2019-02-07T11:31:09.703Z,97735.83
2019-02-07T11:33:37.359Z,97736.91
2019-02-07T11:36:07.786Z,97729.89
2019-02-07T11:38:38.983Z,97727.95
2019-02-07T11:41:06.777Z,97723.27
2019-02-07T11:43:34.617Z,97721.71
2019-02-07T11:46:06.613Z,97717.56
2019-02-07T11:48:35.780Z,97713.13
2019-02-07T11:53:52.784Z,97704.73
2019-02-07T11:56:23.987Z,97696.95
2019-02-07T11:58:57.492Z,97692.63
2019-02-07T12:01:20.898Z,97692.18
2019-02-07T12:03:47.784Z,97685.75
2019-02-07T12:06:15.040Z,97676.36
2019-02-07T12:08:41.725Z,97681.36
2019-02-07T12:11:08.640Z,97681.78
2019-02-07T12:13:36.006Z,97677.34
2019-02-07T12:16:04.835Z,97677.59
2019-02-07T12:18:31.194Z,97671.84
2019-02-07T12:20:57.906Z,97672.95
2019-02-07T12:23:26.250Z,97671.28
2019-02-07T12:25:54.887Z,97675.08
2019-02-07T12:28:21.924Z,97673.38
2019-02-07T12:30:49.092Z,97665.52
2019-02-07T12:33:16.173Z,97662.72
2019-02-07T12:35:43.100Z,97670.52
2019-02-07T12:38:10.132Z,97660.27
2019-02-07T12:40:37.118Z,97669.41
2019-02-07T12:43:03.777Z,97668.70
2019-02-07T12:45:30.964Z,97664.86
2019-02-07T12:47:57.702Z,97660.94
2019-02-07T12:50:25.839Z,97656.25
2019-02-07T12:52:52.587Z,97658.05
2019-02-07T12:55:19.459Z,97656.12
2019-02-07T12:57:46.245Z,97649.19
2019-02-07T13:00:12.905Z,97653.44
2019-02-07T13:02:39.553Z,97653.49
2019-02-07T13:05:06.583Z,97649.96
2019-02-07T13:07:33.584Z,97645.66
2019-02-07T13:10:00.503Z,97640.78
2019-02-07T13:12:28.113Z,97641.71
2019-02-07T13:14:56.388Z,97640.06
2019-02-07T13:17:23.147Z,97639.13
2019-02-07T13:19:50.491Z,97632.55
2019-02-07T13:22:17.216Z,97628.94
2019-02-07T13:24:44.209Z,97632.97
2019-02-07T13:27:11.111Z,97630.31
2019-02-07T13:29:38.266Z,97632.99
2019-02-07T13:32:05.270Z,97626.34
2019-02-07T13:34:32.266Z,97631.56
2019-02-07T13:36:59.317Z,97625.28
2019-02-07T13:39:26.659Z,97626.75
2019-02-07T13:41:53.624Z,97621.97
2019-02-07T13:44:20.918Z,97620.64
2019-02-07T13:46:48.238Z,97621.95
2019-02-07T13:49:15.442Z,97619.75
2019-02-07T13:51:42.740Z,97621.03
2019-02-07T13:54:09.436Z,97619.09
2019-02-07T13:56:36.242Z,97615.31
2019-02-07T13:59:02.948Z,97616.63
2019-02-07T14:01:29.675Z,97618.70
2019-02-07T14:03:56.842Z,97613.25
2019-02-07T14:06:23.508Z,97612.89
2019-02-07T14:08:50.401Z,97612.32
2019-02-07T14:11:17.483Z,97607.98
2019-02-07T14:13:46.151Z,97608.16
2019-02-07T14:16:12.843Z,97616.09
2019-02-07T14:18:39.645Z,97608.47
2019-02-07T14:21:06.919Z,97617.65
2019-02-07T14:23:33.689Z,97615.19
2019-02-07T14:26:00.850Z,97618.62
2019-02-07T14:28:27.914Z,97612.02
2019-02-07T14:30:54.900Z,97602.67
2019-02-07T14:33:21.817Z,97603.17
2019-02-07T14:35:48.939Z,97604.80
2019-02-07T14:38:15.961Z,97610.48
2019-02-07T14:40:47.538Z,97609.91
2019-02-07T14:43:14.162Z,97609.47
2019-02-07T14:45:41.049Z,97605.35
2019-02-07T14:48:08.400Z,97609.00
2019-02-07T14:50:35.571Z,97607.11
2019-02-07T14:53:03.224Z,97599.19
2019-02-07T14:55:30.222Z,97598.52
2019-02-07T14:57:57.659Z,97601.95
2019-02-07T15:00:24.358Z,97600.59
2019-02-07T15:02:51.144Z,97598.48
2019-02-07T15:05:17.814Z,97597.55
2019-02-07T15:07:44.827Z,97597.86
2019-02-07T15:10:11.771Z,97597.27
2019-02-07T15:12:38.889Z,97595.50
2019-02-07T15:15:06.114Z,97600.47
2019-02-07T15:17:33.024Z,97602.50
2019-02-07T15:19:59.867Z,97597.88
2019-02-07T15:22:27.720Z,97596.11
2019-02-07T15:24:54.379Z,97591.13
2019-02-07T15:27:21.290Z,97590.80
2019-02-07T15:29:48.244Z,97595.96
2019-02-07T15:32:14.993Z,97591.63
2019-02-07T15:34:42.093Z,97594.24
2019-02-07T15:37:08.990Z,97591.87
2019-02-07T15:39:35.643Z,97595.84
2019-02-07T15:42:02.900Z,97602.26
2019-02-07T15:44:29.777Z,97596.85
2019-02-07T15:46:56.883Z,97600.95
2019-02-07T15:49:23.998Z,97596.09
2019-02-07T15:51:50.710Z,97596.44
2019-02-07T15:54:17.586Z,97590.64
2019-02-07T15:56:44.521Z,97594.76
2019-02-07T15:59:14.235Z,97596.73
2019-02-07T16:01:40.726Z,97592.66
2019-02-07T16:04:08.548Z,97595.55
2019-02-07T16:06:36.296Z,97584.77
2019-02-07T16:09:03.860Z,97590.98
2019-02-07T16:11:30.536Z,97595.46
2019-02-07T16:13:57.157Z,97591.55
2019-02-07T16:16:24.125Z,97592.87
2019-02-07T16:18:51.089Z,97594.17
2019-02-07T16:21:17.700Z,97596.96
2019-02-07T16:23:44.358Z,97603.35
2019-02-07T16:26:11.369Z,97596.30
2019-02-07T16:28:38.332Z,97602.02
2019-02-07T16:31:05.290Z,97602.97
2019-02-07T16:33:31.928Z,97601.81
2019-02-07T16:36:00.535Z,97605.24
2019-02-07T16:38:27.271Z,97606.20
2019-02-07T16:40:57.638Z,97607.16
2019-02-07T16:43:24.643Z,97599.72
2019-02-07T16:45:51.697Z,97604.10
2019-02-07T16:48:18.424Z,97603.64
2019-02-07T16:50:46.374Z,97606.71
2019-02-07T16:53:13.999Z,97611.58
2019-02-07T16:55:40.951Z,97611.72
2019-02-07T16:58:08.141Z,97613.48
2019-02-07T17:00:39.089Z,97612.48
2019-02-07T17:03:08.580Z,97615.91
2019-02-07T17:05:37.802Z,97616.67
2019-02-07T17:08:08.472Z,97617.78
2019-02-07T17:10:36.115Z,97621.16
2019-02-07T17:13:05.161Z,97619.70
2019-02-07T17:15:36.442Z,97622.45
2019-02-07T17:18:03.201Z,97623.57
2019-02-07T17:20:30.273Z,97625.91
2019-02-07T17:22:59.123Z,97624.02
2019-02-07T17:25:29.046Z,97625.70
2019-02-07T17:27:55.801Z,97630.70
2019-02-07T17:30:25.352Z,97633.67
2019-02-07T17:32:55.155Z,97636.65
2019-02-07T17:35:23.040Z,97640.82
2019-02-07T17:37:53.812Z,97633.28
2019-02-07T17:40:23.670Z,97639.01
2019-02-07T17:42:51.395Z,97640.16
2019-02-07T17:45:20.755Z,97634.55
2019-02-07T17:47:50.574Z,97639.28
2019-02-07T17:50:20.533Z,97642.29
2019-02-07T17:52:50.218Z,97642.19
2019-02-07T17:55:17.216Z,97645.95
2019-02-07T17:57:48.778Z,97647.78
2019-02-07T18:00:16.378Z,97649.09
2019-02-07T18:02:46.779Z,97640.19
2019-02-07T18:05:16.732Z,97638.27
2019-02-07T18:07:43.935Z,97638.79
2019-02-07T18:10:13.572Z,97644.16
2019-02-07T18:12:41.182Z,97643.66
2019-02-07T18:15:12.021Z,97647.37
2019-02-07T18:20:28.008Z,97649.60
2019-02-07T18:22:56.781Z,97648.66
2019-02-07T18:25:25.011Z,97641.84
2019-02-07T18:27:54.138Z,97642.38
2019-02-07T18:30:23.065Z,97637.55
2019-02-07T18:32:52.968Z,97642.38
2019-02-07T18:35:20.337Z,97635.37
2019-02-07T18:37:47.956Z,97637.55
2019-02-07T18:40:16.449Z,97641.53
2019-02-07T18:42:43.523Z,97631.03
2019-02-07T18:45:10.198Z,97630.32
2019-02-07T18:47:38.083Z,97633.41
2019-02-07T18:50:05.437Z,97628.20
2019-02-07T18:52:32.870Z,97629.67
2019-02-07T18:54:59.585Z,97633.25
2019-02-07T18:57:26.714Z,97635.33
2019-02-07T18:59:58.089Z,97635.63
2019-02-07T19:02:39.448Z,97628.72
2019-02-07T19:05:07.132Z,97633.93
2019-02-07T19:07:40.119Z,97634.00
2019-02-07T19:12:54.118Z,97635.22
2019-02-07T19:15:36.177Z,97642.36
2019-02-07T19:18:07.990Z,97643.99
2019-02-07T19:20:45.409Z,97641.77
2019-02-07T19:28:55.388Z,97635.15
2019-02-07T19:33:55.217Z,97636.80
2019-02-07T19:36:22.287Z,97633.71
2019-02-07T19:38:49.135Z,97628.88
2019-02-07T19:41:16.867Z,97631.69
2019-02-07T19:43:45.597Z,97632.90
2019-02-07T19:46:14.974Z,97632.49
2019-02-07T19:48:42.147Z,97632.13
2019-02-07T19:51:11.381Z,97637.20
2019-02-07T20:13:18.020Z,97642.30
2019-02-07T20:15:49.613Z,97645.58
2019-02-07T20:18:18.160Z,97649.64
2019-02-07T20:23:33.080Z,97645.73
2019-02-07T20:26:02.221Z,97641.47
2019-02-07T20:28:29.770Z,97638.21
2019-02-07T20:30:57.263Z,97650.02
2019-02-07T20:33:23.874Z,97648.87
2019-02-07T20:35:50.613Z,97651.55
2019-02-07T20:38:17.634Z,97657.72
2019-02-07T20:40:45.695Z,97651.88
2019-02-07T20:43:16.393Z,97651.67
2019-02-07T20:45:55.393Z,97655.91
2019-02-07T20:48:24.497Z,97658.58
2019-02-07T20:50:55.321Z,97659.90
2019-02-07T20:53:22.938Z,97658.66
2019-02-07T20:55:50.900Z,97660.24
2019-02-07T20:58:22.062Z,97665.08
2019-02-07T21:00:51.619Z,97655.39
2019-02-07T21:03:18.739Z,97662.28
2019-02-07T21:05:45.670Z,97667.00
2019-02-07T21:08:12.572Z,97665.31
2019-02-07T21:10:40.058Z,97672.28
2019-02-07T21:13:06.977Z,97673.44
2019-02-07T21:15:33.854Z,97681.80
2019-02-07T21:18:00.770Z,97676.38
2019-02-07T21:20:27.390Z,97679.71
2019-02-07T21:22:54.062Z,97679.59
2019-02-07T21:25:20.920Z,97684.12
2019-02-07T21:27:47.912Z,97682.88
2019-02-07T21:30:14.606Z,97684.13
2019-02-07T21:32:41.638Z,97690.41
2019-02-07T21:35:08.241Z,97688.23
2019-02-07T21:37:35.229Z,97688.50
2019-02-07T21:40:02.443Z,97687.75
2019-02-07T21:42:29.236Z,97686.09
2019-02-07T21:44:56.325Z,97686.09
2019-02-07T21:47:22.945Z,97684.45
2019-02-07T21:49:49.577Z,97686.63
2019-02-07T21:52:16.804Z,97690.22
2019-02-07T21:54:52.827Z,97695.02
2019-02-07T21:57:16.275Z,97700.32
2019-02-07T21:59:42.891Z,97690.38
2019-02-07T22:02:09.666Z,97690.53
2019-02-07T22:04:48.139Z,97694.22
2019-02-07T22:07:15.816Z,97693.52
2019-02-07T22:09:43.699Z,97689.78
2019-02-07T22:12:13.209Z,97699.29
2019-02-07T22:14:40.289Z,97703.13
2019-02-07T22:17:07.148Z,97692.31
2019-02-07T22:19:35.008Z,97689.45
2019-02-07T22:22:03.190Z,97699.73
2019-02-07T22:24:33.374Z,97709.24
2019-02-07T22:27:00.763Z,97705.30
2019-02-07T22:29:30.040Z,97704.80
2019-02-07T22:31:57.757Z,97708.72
2019-02-07T22:34:25.443Z,97704.64
2019-02-07T22:36:55.277Z,97709.12
2019-02-07T22:39:24.363Z,97705.20
2019-02-07T22:41:52.010Z,97704.66
2019-02-07T22:44:19.445Z,97700.20
2019-02-07T22:46:50.653Z,97707.58
2019-02-07T22:49:20.627Z,97700.47
2019-02-07T22:51:54.739Z,97706.73
2019-02-07T22:54:19.671Z,97704.80
2019-02-07T22:56:47.880Z,97703.84
2019-02-07T22:59:18.710Z,97701.08
2019-02-07T23:01:46.461Z,97702.09
2019-02-07T23:04:13.128Z,97701.52
2019-02-07T23:06:39.858Z,97698.38
2019-02-07T23:09:06.753Z,97696.92
2019-02-07T23:11:33.339Z,97700.44
2019-02-07T23:13:59.995Z,97696.52
2019-02-07T23:16:27.208Z,97697.34
2019-02-07T23:18:54.979Z,97692.33
2019-02-07T23:21:21.986Z,97702.72
2019-02-07T23:23:48.655Z,97692.75
2019-02-07T23:26:15.267Z,97696.22
2019-02-07T23:28:42.550Z,97697.50
2019-02-07T23:31:09.164Z,97700.55
2019-02-07T23:33:36.033Z,97702.38
2019-02-07T23:36:03.347Z,97698.23
2019-02-07T23:38:30.224Z,97703.20
2019-02-07T23:40:56.932Z,97701.45
2019-02-07T23:43:23.577Z,97693.75
2019-02-07T23:45:50.398Z,97701.06
2019-02-07T23:48:17.153Z,97701.11
2019-02-07T23:50:44.079Z,97700.30
2019-02-07T23:53:14.797Z,97701.52
2019-02-07T23:55:40.648Z,97695.22
2019-02-07T23:58:07.986Z,97698.99
